Time;durP1;ratioP1;P1;durP2;ratioP2;P2;SDS_P1;SDS_P2;PMS_P1;PMS_P2;Temp;Humidity;BMP_temperature;BMP_pressure;BME280_temperature;BME280_humidity;BME280_pressure;Samples;Min_cycle;Max_cycle;Signal;HPM_P1;HPM_P2
2022/01/25 00:15:02;;;;;;;75.32;37.83;;;4.10;99.90;;;;;;4973183;28;20054;-84
2022/01/25 00:27:13;;;;;;;75.05;39.35;;;4.10;99.90;;;;;;4972691;28;20144;-84
2022/01/25 00:32:14;;;;;;;74.60;40.33;;;4.20;99.90;;;;;;4942590;28;20065;-84
2022/01/25 00:34:40;;;;;;;74.97;41.00;;;4.10;99.90;;;;;;4972822;28;20053;-84
2022/01/25 00:37:05;;;;;;;76.75;41.60;;;4.10;99.90;;;;;;4972825;28;20048;-84
2022/01/25 00:39:31;;;;;;;75.20;41.05;;;4.20;99.90;;;;;;4990490;28;20195;-84
2022/01/25 00:41:57;;;;;;;80.55;41.10;;;5.10;99.90;;;;;;4974056;28;20380;-83
2022/01/25 00:44:22;;;;;;;79.13;41.38;;;4.10;99.90;;;;;;4979458;28;20058;-84
2022/01/25 00:46:48;;;;;;;77.97;41.42;;;4.10;99.90;;;;;;4989493;28;20715;-85
2022/01/25 00:49:24;;;;;;;76.28;41.15;;;4.50;99.90;;;;;;4959509;28;20056;-84
2022/01/25 00:56:48;;;;;;;82.13;42.60;;;4.80;99.90;;;;;;4975309;28;20475;-84
2022/01/25 00:59:16;;;;;;;76.55;40.30;;;4.20;99.90;;;;;;4975519;28;20462;-85
2022/01/25 01:01:42;;;;;;;82.03;43.03;;;4.50;99.90;;;;;;4975209;28;20191;-84
2022/01/25 01:04:07;;;;;;;82.97;42.53;;;4.10;99.90;;;;;;4992976;28;20125;-84
2022/01/25 01:06:34;;;;;;;82.00;43.47;;;4.90;99.90;;;;;;4992656;28;20133;-84
2022/01/25 01:08:59;;;;;;;80.28;43.15;;;4.10;99.90;;;;;;4975321;28;20121;-84
2022/01/25 01:11:34;;;;;;;81.65;44.20;;;4.30;99.90;;;;;;4992878;28;20122;-83
2022/01/25 01:14:17;;;;;;;79.40;40.65;;;4.00;99.90;;;;;;4944820;28;20284;-84
2022/01/25 01:43:16;;;;;;;89.07;44.08;;;4.00;99.90;;;;;;4991828;28;20058;-83
2022/01/25 01:48:11;;;;;;;80.80;43.53;;;4.10;99.90;;;;;;4941353;28;20081;-84
2022/01/25 01:50:38;;;;;;;86.00;45.40;;;4.40;99.90;;;;;;4990270;28;20045;-84
2022/01/25 01:53:05;;;;;;;82.65;43.67;;;4.00;99.90;;;;;;4973069;28;20157;-84
2022/01/25 01:55:31;;;;;;;83.88;44.47;;;4.60;99.90;;;;;;4990828;28;20487;-84
2022/01/25 01:57:56;;;;;;;87.57;44.90;;;4.00;99.90;;;;;;4956206;28;20057;-84
2022/01/25 02:00:25;;;;;;;81.28;44.55;;;4.00;99.90;;;;;;4952529;28;20208;-84
2022/01/25 02:02:51;;;;;;;84.95;45.13;;;4.00;99.90;;;;;;4969405;28;20614;-84
2022/01/25 02:05:17;;;;;;;88.28;44.92;;;4.00;99.90;;;;;;4953905;28;20043;-84
2022/01/25 02:07:42;;;;;;;86.65;45.08;;;4.00;99.90;;;;;;4953574;28;20144;-84
2022/01/25 02:10:09;;;;;;;85.47;44.90;;;4.00;99.90;;;;;;4970726;28;20059;-84
2022/01/25 02:12:34;;;;;;;85.90;44.55;;;4.00;99.90;;;;;;4970536;28;20050;-84
2022/01/25 02:15:02;;;;;;;88.00;47.10;;;4.00;99.90;;;;;;4971506;28;20050;-84
2022/01/25 02:23:00;;;;;;;86.05;44.90;;;4.30;99.90;;;;;;4970664;28;20102;-83
2022/01/25 02:25:26;;;;;;;84.40;46.22;;;4.00;99.90;;;;;;4939106;28;20090;-84
2022/01/25 02:27:52;;;;;;;85.47;44.28;;;3.90;99.90;;;;;;4970575;28;20051;-84
2022/01/25 02:30:17;;;;;;;84.90;45.05;;;3.90;99.90;;;;;;4971101;28;20529;-83
2022/01/25 02:32:43;;;;;;;78.40;44.10;;;4.00;99.90;;;;;;4971899;28;20427;-85
2022/01/25 02:35:09;;;;;;;81.70;44.63;;;4.00;99.90;;;;;;4970660;28;20043;-83
2022/01/25 02:37:35;;;;;;;87.78;45.28;;;3.90;99.90;;;;;;4972084;28;20100;-84
2022/01/25 02:40:01;;;;;;;87.72;45.78;;;4.00;99.90;;;;;;4970359;28;20051;-83
2022/01/25 02:42:27;;;;;;;84.65;44.33;;;4.40;99.90;;;;;;4971954;28;20062;-83
2022/01/25 02:44:53;;;;;;;89.00;45.72;;;3.90;99.90;;;;;;4971643;28;20047;-87
2022/01/25 02:50:03;;;;;;;87.10;43.25;;;3.90;99.90;;;;;;4956973;28;20447;-84
2022/01/25 02:52:29;;;;;;;88.05;44.30;;;4.00;99.90;;;;;;4971553;28;20051;-83
2022/01/25 02:54:55;;;;;;;85.50;43.45;;;4.00;99.90;;;;;;4970341;28;20050;-84
2022/01/25 02:57:21;;;;;;;91.57;46.67;;;4.20;99.90;;;;;;4971693;28;20093;-83
2022/01/25 02:59:47;;;;;;;86.10;45.58;;;3.90;99.90;;;;;;4957501;28;20495;-83
2022/01/25 03:02:12;;;;;;;84.93;45.20;;;3.90;99.90;;;;;;4990598;28;20096;-83
2022/01/25 03:04:38;;;;;;;85.55;44.33;;;4.70;99.90;;;;;;4973554;28;20042;-83
2022/01/25 03:07:04;;;;;;;83.22;43.75;;;4.90;99.90;;;;;;4990678;28;20129;-84
2022/01/25 03:09:30;;;;;;;85.03;45.30;;;3.90;99.90;;;;;;4957285;28;20108;-83
2022/01/25 03:11:57;;;;;;;84.18;44.72;;;2.80;99.90;;;;;;4990460;28;20038;-86
2022/01/25 03:14:26;;;;;;;88.40;45.03;;;4.20;99.90;;;;;;4974026;28;20050;-83
2022/01/25 03:22:03;;;;;;;85.05;45.55;;;4.00;99.90;;;;;;4945299;28;20047;-83
2022/01/25 03:24:29;;;;;;;87.32;45.40;;;3.90;99.90;;;;;;4958122;28;20586;-83
2022/01/25 03:26:55;;;;;;;94.05;45.70;;;4.20;99.90;;;;;;4973477;28;20054;-87
2022/01/25 03:29:20;;;;;;;86.68;45.15;;;3.90;99.90;;;;;;4973290;28;20047;-83
2022/01/25 03:31:46;;;;;;;88.07;44.88;;;5.00;99.90;;;;;;4957765;28;20042;-84
2022/01/25 03:34:12;;;;;;;85.85;44.67;;;4.40;99.90;;;;;;4990985;28;20046;-83
2022/01/25 03:36:37;;;;;;;94.68;47.40;;;4.80;99.90;;;;;;4973922;28;20133;-83
2022/01/25 03:39:05;;;;;;;91.20;46.35;;;3.80;99.90;;;;;;4973975;28;20136;-83
2022/01/25 03:41:31;;;;;;;91.53;46.42;;;3.90;99.90;;;;;;4973514;28;20180;-83
2022/01/25 03:43:57;;;;;;;91.15;47.17;;;3.80;99.90;;;;;;4957610;28;20038;-85
2022/01/25 03:46:38;;;;;;;88.10;45.90;;;3.90;99.90;;;;;;4973390;28;20086;-83
2022/01/25 03:51:48;;;;;;;87.50;46.40;;;3.90;99.90;;;;;;4960796;28;20120;-84
2022/01/25 03:54:14;;;;;;;87.60;46.75;;;3.90;99.90;;;;;;4973264;28;20217;-83
2022/01/25 03:56:40;;;;;;;92.35;45.92;;;3.90;99.90;;;;;;4957266;28;20081;-83
2022/01/25 03:59:06;;;;;;;89.93;45.85;;;3.90;99.90;;;;;;4973093;28;20089;-83
2022/01/25 04:01:33;;;;;;;89.53;46.40;;;3.90;99.90;;;;;;4973230;28;20050;-83
2022/01/25 04:04:03;;;;;;;87.47;46.17;;;4.00;99.90;;;;;;4941195;28;20054;-85
2022/01/25 04:06:33;;;;;;;88.00;44.92;;;3.90;99.90;;;;;;4973140;28;20141;-83
2022/01/25 04:08:59;;;;;;;88.30;46.28;;;4.00;99.90;;;;;;4989869;28;20053;-83
2022/01/25 04:11:25;;;;;;;85.90;44.08;;;3.90;99.90;;;;;;4972480;28;20058;-83
2022/01/25 04:13:53;;;;;;;85.32;45.05;;;4.90;99.90;;;;;;4972932;28;20057;-83
2022/01/25 04:16:23;;;;;;;86.28;45.65;;;4.50;99.90;;;;;;4956905;28;20369;-83
2022/01/25 04:20:11;;;;;;;85.03;43.72;;;4.20;99.90;;;;;;4958551;28;20053;-83
2022/01/25 04:24:42;;;;;;;88.07;45.13;;;3.90;99.90;;;;;;4972993;28;20058;-86
2022/01/25 04:24:55;;;;;;;88.15;46.15;;;3.80;99.90;;;;;;4976489;28;20060;-83
2022/01/25 04:27:22;;;;;;;88.53;45.17;;;3.80;99.90;;;;;;4976065;28;20085;-83
2022/01/25 04:29:48;;;;;;;93.15;46.55;;;3.90;99.90;;;;;;4976220;28;20525;-83
2022/01/25 04:32:14;;;;;;;91.70;45.08;;;4.00;99.90;;;;;;4992938;28;20050;-83
2022/01/25 04:34:44;;;;;;;90.15;46.67;;;3.90;99.90;;;;;;4976210;28;20419;-84
2022/01/25 04:54:04;;;;;;;90.90;46.33;;;4.10;99.90;;;;;;4961344;28;20062;-83
2022/01/25 04:59:15;;;;;;;87.70;45.65;;;3.90;99.90;;;;;;4898475;29;20065;-83
2022/01/25 05:01:42;;;;;;;85.22;42.67;;;4.00;99.90;;;;;;4884556;28;20060;-83
2022/01/25 05:04:12;;;;;;;89.43;45.42;;;3.90;99.90;;;;;;4956664;28;20492;-87
2022/01/25 05:06:40;;;;;;;92.30;47.72;;;3.90;99.90;;;;;;4960848;28;20051;-84
2022/01/25 05:09:11;;;;;;;89.18;46.08;;;4.30;99.90;;;;;;4993038;28;20054;-83
2022/01/25 05:11:41;;;;;;;90.45;45.53;;;3.90;99.90;;;;;;4992827;28;20452;-83
2022/01/25 05:16:36;;;;;;;85.82;44.17;;;3.90;99.90;;;;;;4975425;28;20400;-83
2022/01/25 05:24:29;;;;;;;93.88;46.90;;;4.10;99.90;;;;;;4948265;28;20065;-83
2022/01/25 05:26:54;;;;;;;93.13;46.65;;;3.80;99.90;;;;;;4975237;28;20046;-84
2022/01/25 05:29:20;;;;;;;92.20;47.15;;;3.80;99.90;;;;;;4992577;28;20052;-83
2022/01/25 05:31:46;;;;;;;92.80;46.50;;;3.80;99.90;;;;;;4992711;28;20042;-84
2022/01/25 05:34:11;;;;;;;90.22;46.97;;;3.80;99.90;;;;;;4992361;28;20053;-84
2022/01/25 05:36:38;;;;;;;89.43;45.53;;;3.80;99.90;;;;;;4975781;28;20456;-83
2022/01/25 05:39:10;;;;;;;90.38;45.95;;;4.00;99.90;;;;;;4975386;28;20038;-83
2022/01/25 05:41:36;;;;;;;91.47;44.78;;;3.90;99.90;;;;;;4974708;28;20050;-83
2022/01/25 05:46:45;;;;;;;89.57;46.40;;;3.90;99.90;;;;;;4974592;28;20533;-83
2022/01/25 05:49:11;;;;;;;94.03;47.42;;;4.70;99.90;;;;;;4974664;28;20054;-84
2022/01/25 05:51:37;;;;;;;93.38;46.30;;;4.30;99.90;;;;;;4958781;28;20049;-85
2022/01/25 05:54:02;;;;;;;90.22;46.97;;;3.80;99.90;;;;;;4975459;28;20054;-83
2022/01/25 05:56:28;;;;;;;92.45;47.15;;;3.90;99.90;;;;;;4992039;28;20053;-84
2022/01/25 05:58:54;;;;;;;88.60;46.03;;;3.80;99.90;;;;;;4992115;28;20046;-83
2022/01/25 06:01:19;;;;;;;90.72;46.60;;;3.80;99.90;;;;;;4974762;28;20064;-84
2022/01/25 06:03:45;;;;;;;101.97;49.50;;;4.10;99.90;;;;;;4992286;28;20050;-84
2022/01/25 06:06:11;;;;;;;99.53;47.70;;;3.80;99.90;;;;;;4992514;28;20062;-83
2022/01/25 06:08:37;;;;;;;93.57;47.55;;;3.80;99.90;;;;;;4974666;28;20412;-83
2022/01/25 06:11:03;;;;;;;88.43;46.47;;;3.80;99.90;;;;;;4992566;28;20049;-84
2022/01/25 06:13:29;;;;;;;92.00;45.67;;;3.90;99.90;;;;;;4958602;28;20123;-84
2022/01/25 06:15:54;;;;;;;99.82;47.00;;;3.80;99.90;;;;;;4975363;28;20090;-83
2022/01/25 06:18:20;;;;;;;95.82;46.63;;;3.70;99.90;;;;;;4974422;28;20046;-84
2022/01/25 06:20:46;;;;;;;95.50;46.40;;;4.70;99.90;;;;;;4974466;28;20379;-84
2022/01/25 06:23:11;;;;;;;94.25;46.75;;;3.80;99.90;;;;;;4974741;28;20042;-83
2022/01/25 06:25:37;;;;;;;97.63;47.97;;;4.60;99.90;;;;;;4974355;28;20100;-83
2022/01/25 06:28:03;;;;;;;96.38;47.17;;;4.50;99.90;;;;;;4991835;28;20056;-83
2022/01/25 06:30:28;;;;;;;95.22;47.55;;;3.80;99.90;;;;;;4991679;28;20125;-83
2022/01/25 06:32:54;;;;;;;96.65;47.58;;;3.80;99.90;;;;;;4974868;28;20099;-83
2022/01/25 06:35:20;;;;;;;95.30;46.80;;;4.00;99.90;;;;;;4974954;28;20103;-86
2022/01/25 06:37:46;;;;;;;97.45;48.25;;;4.50;99.90;;;;;;4975028;28;20046;-85
2022/01/25 06:40:12;;;;;;;99.13;48.63;;;3.80;99.90;;;;;;4958965;28;20058;-83
2022/01/25 06:42:37;;;;;;;94.68;46.78;;;3.80;99.90;;;;;;4991628;28;20109;-83
2022/01/25 06:45:09;;;;;;;94.28;45.38;;;4.60;99.90;;;;;;4973593;28;20050;-82
2022/01/25 06:47:35;;;;;;;92.72;46.75;;;3.80;99.90;;;;;;4976476;28;20576;-83
2022/01/25 06:50:00;;;;;;;96.25;48.45;;;3.80;99.90;;;;;;4993988;28;20499;-83
2022/01/25 06:52:26;;;;;;;99.65;46.85;;;4.00;99.90;;;;;;4992402;28;20125;-84
2022/01/25 06:54:51;;;;;;;94.75;45.83;;;3.80;99.90;;;;;;4973531;28;20042;-85
2022/01/25 06:57:18;;;;;;;98.35;47.42;;;3.90;99.90;;;;;;4991383;28;20053;-83
2022/01/25 06:59:43;;;;;;;91.32;45.38;;;3.90;99.90;;;;;;4972843;28;20273;-82
2022/01/25 07:02:10;;;;;;;97.00;47.88;;;3.80;99.90;;;;;;4990292;28;20065;-85
2022/01/25 07:04:35;;;;;;;100.05;48.20;;;3.90;99.90;;;;;;4956629;28;20050;-84
2022/01/25 07:07:01;;;;;;;93.10;45.67;;;4.30;99.90;;;;;;4990391;28;20491;-83
2022/01/25 07:09:28;;;;;;;96.30;48.00;;;3.80;99.90;;;;;;4989518;28;20050;-87
2022/01/25 07:11:54;;;;;;;93.05;46.30;;;3.80;99.90;;;;;;4972339;28;20469;-83
2022/01/25 07:14:19;;;;;;;100.43;48.08;;;3.80;99.90;;;;;;4972488;28;20043;-85
2022/01/25 07:16:46;;;;;;;96.13;47.28;;;4.30;99.90;;;;;;4989766;28;20522;-84
2022/01/25 07:19:12;;;;;;;95.25;47.47;;;3.80;99.90;;;;;;4956756;28;20054;-84
2022/01/25 07:21:38;;;;;;;97.45;47.60;;;4.10;99.90;;;;;;4972312;28;20144;-84
2022/01/25 07:24:04;;;;;;;99.13;46.72;;;3.80;99.90;;;;;;4989802;28;20050;-84
2022/01/25 07:26:30;;;;;;;96.95;47.08;;;3.80;99.90;;;;;;4989447;28;20046;-83
2022/01/25 07:28:55;;;;;;;96.15;46.65;;;3.80;99.90;;;;;;4956408;28;20058;-84
2022/01/25 07:31:21;;;;;;;92.40;44.00;;;3.80;99.90;;;;;;4990312;28;20498;-84
2022/01/25 07:33:47;;;;;;;92.45;45.15;;;3.90;99.90;;;;;;4990486;28;20630;-83
2022/01/25 07:36:12;;;;;;;92.55;44.45;;;3.90;99.90;;;;;;4973457;28;20179;-83
2022/01/25 07:38:38;;;;;;;95.10;46.70;;;3.90;99.90;;;;;;4990319;28;20732;-83
2022/01/25 07:41:04;;;;;;;93.40;45.47;;;3.90;99.90;;;;;;4990471;28;20484;-83
2022/01/25 07:43:29;;;;;;;95.30;45.38;;;4.00;99.90;;;;;;4990465;28;20054;-84
2022/01/25 07:45:57;;;;;;;95.53;44.50;;;4.20;99.90;;;;;;4990423;28;20100;-83
2022/01/25 07:48:22;;;;;;;87.40;44.22;;;4.60;99.90;;;;;;4973423;28;20042;-84
2022/01/25 07:50:48;;;;;;;91.10;45.45;;;3.90;99.90;;;;;;4990117;28;20107;-83
2022/01/25 07:53:14;;;;;;;95.63;45.63;;;3.90;99.90;;;;;;4957211;28;20054;-84
2022/01/25 07:55:40;;;;;;;93.72;45.03;;;3.90;99.90;;;;;;4972920;28;20097;-83
2022/01/25 07:58:06;;;;;;;98.85;44.45;;;3.90;99.90;;;;;;4957549;28;20058;-84
2022/01/25 08:00:31;;;;;;;90.78;44.15;;;4.10;99.90;;;;;;4940314;28;20061;-84
2022/01/25 08:02:57;;;;;;;90.55;45.92;;;4.20;99.90;;;;;;4990556;28;20057;-84
2022/01/25 08:05:25;;;;;;;90.28;43.88;;;3.90;99.90;;;;;;4972864;28;20095;-83
2022/01/25 08:07:51;;;;;;;87.70;44.40;;;4.80;99.90;;;;;;4956601;28;20062;-83
2022/01/25 08:10:17;;;;;;;92.00;45.25;;;3.90;99.90;;;;;;4956988;28;20113;-83
2022/01/25 08:12:42;;;;;;;90.50;44.33;;;3.90;99.90;;;;;;4972384;28;20377;-83
2022/01/25 08:15:09;;;;;;;95.97;44.72;;;3.90;99.90;;;;;;4973188;28;20488;-83
2022/01/25 08:17:34;;;;;;;93.10;44.67;;;3.90;99.90;;;;;;4972582;28;20061;-83
2022/01/25 08:20:01;;;;;;;93.55;46.33;;;4.00;99.90;;;;;;4989861;28;20479;-83
2022/01/25 08:22:26;;;;;;;94.63;45.33;;;4.00;99.90;;;;;;4972431;28;20051;-83
2022/01/25 08:24:52;;;;;;;94.32;44.75;;;4.20;99.90;;;;;;4972336;28;20054;-85
2022/01/25 08:27:22;;;;;;;91.50;44.15;;;4.00;99.90;;;;;;4956683;28;20161;-83
2022/01/25 08:29:49;;;;;;;97.75;45.10;;;4.90;99.90;;;;;;4972746;28;20053;-83
2022/01/25 08:32:15;;;;;;;91.15;44.17;;;4.00;99.90;;;;;;4956806;28;20043;-83
2022/01/25 08:34:41;;;;;;;93.82;45.58;;;4.10;99.90;;;;;;4956108;28;20054;-83
2022/01/25 08:37:06;;;;;;;96.97;45.17;;;4.50;99.90;;;;;;4989974;28;20050;-84
2022/01/25 08:39:32;;;;;;;96.03;44.55;;;4.10;99.90;;;;;;4990134;28;20082;-86
2022/01/25 08:41:58;;;;;;;93.60;45.83;;;4.10;99.90;;;;;;4988945;28;20051;-85
2022/01/25 08:44:23;;;;;;;86.93;43.15;;;4.10;99.90;;;;;;4955029;28;20856;-83
2022/01/25 08:46:49;;;;;;;92.38;45.03;;;4.10;99.90;;;;;;4955652;28;20545;-83
2022/01/25 08:49:15;;;;;;;89.15;43.95;;;4.10;99.90;;;;;;4989874;28;20074;-83
2022/01/25 08:51:41;;;;;;;91.90;42.92;;;4.10;99.90;;;;;;4972274;28;20047;-84
2022/01/25 08:54:06;;;;;;;87.60;43.28;;;4.10;99.90;;;;;;4972381;28;20440;-83
2022/01/25 08:56:32;;;;;;;92.70;44.08;;;4.10;99.90;;;;;;4972307;28;20400;-84
2022/01/25 08:58:58;;;;;;;90.28;44.13;;;4.10;99.90;;;;;;4972280;28;20090;-83
2022/01/25 09:01:27;;;;;;;88.65;44.53;;;4.20;99.90;;;;;;4971743;28;20206;-84
2022/01/25 09:03:56;;;;;;;85.97;43.05;;;4.20;99.90;;;;;;4940444;28;20061;-83
2022/01/25 09:06:22;;;;;;;92.95;44.70;;;4.10;99.90;;;;;;4989440;28;20050;-83
2022/01/25 09:08:49;;;;;;;87.88;43.10;;;4.50;99.90;;;;;;4974021;28;20050;-83
2022/01/25 09:11:15;;;;;;;89.90;42.25;;;4.30;99.90;;;;;;4959370;28;20049;-84
2022/01/25 09:13:40;;;;;;;90.13;43.38;;;4.20;99.90;;;;;;4974958;28;20054;-85
2022/01/25 09:16:07;;;;;;;88.22;43.35;;;4.30;99.90;;;;;;4971929;28;20059;-85
2022/01/25 09:18:33;;;;;;;90.35;43.72;;;4.30;99.90;;;;;;4992534;28;20125;-84
2022/01/25 09:20:58;;;;;;;95.18;45.13;;;4.20;99.90;;;;;;4975043;28;20172;-84
2022/01/25 09:23:25;;;;;;;95.18;44.90;;;4.20;99.90;;;;;;4992733;28;20046;-84
2022/01/25 09:25:51;;;;;;;96.85;45.03;;;4.40;99.90;;;;;;4991603;28;20513;-84
2022/01/25 09:28:16;;;;;;;90.47;42.97;;;4.30;99.90;;;;;;4959060;28;20123;-84
2022/01/25 09:30:43;;;;;;;94.93;45.97;;;4.30;99.90;;;;;;4957572;28;20404;-84
2022/01/25 09:33:08;;;;;;;89.78;42.83;;;4.30;99.90;;;;;;4958874;28;20115;-84
2022/01/25 09:35:34;;;;;;;92.95;42.88;;;4.30;99.90;;;;;;4975156;28;20058;-84
2022/01/25 09:38:00;;;;;;;97.32;43.83;;;4.30;99.90;;;;;;4958851;28;20117;-84
2022/01/25 09:40:25;;;;;;;93.57;43.20;;;4.30;99.90;;;;;;4975471;28;20135;-83
2022/01/25 09:42:54;;;;;;;89.88;42.85;;;4.30;99.90;;;;;;4992815;28;20086;-83
2022/01/25 09:45:20;;;;;;;95.45;43.42;;;4.40;99.90;;;;;;4992717;28;20054;-84
2022/01/25 09:47:46;;;;;;;91.53;43.83;;;4.30;99.90;;;;;;4974487;28;20532;-83
2022/01/25 09:50:12;;;;;;;95.28;44.22;;;4.30;99.90;;;;;;4975603;28;20046;-83
2022/01/25 09:52:39;;;;;;;92.40;44.47;;;4.30;99.90;;;;;;4992789;28;20109;-83
2022/01/25 09:55:09;;;;;;;95.55;43.42;;;4.30;99.90;;;;;;4955487;28;20070;-83
2022/01/25 09:57:35;;;;;;;90.10;44.85;;;4.30;99.90;;;;;;4991085;28;20048;-84
2022/01/25 10:00:00;;;;;;;94.35;43.97;;;4.90;99.90;;;;;;4991368;28;20058;-83
2022/01/25 10:02:48;;;;;;;93.05;43.58;;;4.20;99.90;;;;;;4974706;28;20073;-83
2022/01/25 10:05:27;;;;;;;95.85;43.97;;;4.20;99.90;;;;;;4992339;28;20042;-84
2022/01/25 10:08:16;;;;;;;94.43;45.10;;;4.30;99.90;;;;;;4958493;28;20042;-83
2022/01/25 10:10:44;;;;;;;102.25;45.75;;;4.30;99.90;;;;;;4974937;28;20086;-83
2022/01/25 10:13:14;;;;;;;98.82;44.13;;;4.30;99.90;;;;;;4959594;28;20095;-83
2022/01/25 10:15:40;;;;;;;101.85;45.17;;;4.30;99.90;;;;;;4959590;28;20051;-83
2022/01/25 10:18:05;;;;;;;94.30;41.90;;;4.30;99.90;;;;;;4973979;28;20054;-83
2022/01/25 10:20:33;;;;;;;98.47;46.45;;;4.40;99.90;;;;;;4972954;28;20042;-84
2022/01/25 10:23:00;;;;;;;100.90;45.40;;;4.40;99.90;;;;;;4991083;28;20050;-83
2022/01/25 10:25:35;;;;;;;101.53;46.08;;;4.30;99.90;;;;;;4974480;28;20115;-84
2022/01/25 10:28:06;;;;;;;100.15;44.15;;;4.30;99.90;;;;;;4990982;28;20047;-83
2022/01/25 10:30:35;;;;;;;104.75;46.67;;;4.30;99.90;;;;;;4942821;28;20050;-84
2022/01/25 10:33:01;;;;;;;98.95;45.80;;;4.40;99.90;;;;;;4991048;28;20077;-83
2022/01/25 10:35:28;;;;;;;98.90;45.97;;;4.30;99.90;;;;;;4974842;28;20133;-83
2022/01/25 10:37:54;;;;;;;101.88;44.50;;;4.30;99.90;;;;;;4959182;28;20046;-83
2022/01/25 10:40:38;;;;;;;98.55;44.60;;;4.30;99.90;;;;;;4992595;28;20514;-83
2022/01/25 10:43:07;;;;;;;110.35;47.25;;;4.40;99.90;;;;;;4959405;28;20119;-83
2022/01/25 10:45:32;;;;;;;102.60;46.45;;;4.30;99.90;;;;;;4959466;28;20468;-83
2022/01/25 10:47:58;;;;;;;104.22;45.78;;;4.30;99.90;;;;;;4992610;28;20089;-83
2022/01/25 10:50:34;;;;;;;98.15;44.78;;;4.40;99.90;;;;;;4992408;28;20475;-82
2022/01/25 10:53:16;;;;;;;105.53;46.50;;;5.40;99.90;;;;;;4975186;28;20061;-83
2022/01/25 10:55:51;;;;;;;98.95;45.50;;;4.50;99.90;;;;;;4942330;28;20054;-83
2022/01/25 10:58:17;;;;;;;;;;;4.50;99.90;;;;;;4998625;28;20096;-84
2022/01/25 11:00:47;;;;;;;104.85;45.17;;;4.40;99.90;;;;;;4991085;28;19973;-83
2022/01/25 11:03:25;;;;;;;97.35;45.20;;;4.40;99.90;;;;;;4991631;28;20111;-83
2022/01/25 11:05:51;;;;;;;100.72;44.42;;;4.50;99.90;;;;;;4974461;28;20101;-87
2022/01/25 11:08:21;;;;;;;105.20;45.08;;;4.50;99.90;;;;;;4991038;28;20085;-84
2022/01/25 11:10:53;;;;;;;102.88;45.83;;;4.50;99.90;;;;;;4957138;28;20046;-84
2022/01/25 11:15:57;;;;;;;98.32;42.45;;;4.40;99.90;;;;;;4973575;28;20520;-85
2022/01/25 11:18:23;;;;;;;101.35;44.83;;;4.40;99.90;;;;;;4940853;28;20054;-84
2022/01/25 11:20:53;;;;;;;99.60;45.15;;;4.60;99.90;;;;;;4990012;28;20061;-84
2022/01/25 11:23:19;;;;;;;105.70;45.92;;;4.50;99.90;;;;;;4956708;28;20043;-84
2022/01/25 11:25:48;;;;;;;91.43;40.72;;;4.40;99.90;;;;;;4956314;28;20097;-85
2022/01/25 11:28:14;;;;;;;100.72;43.50;;;4.50;99.90;;;;;;4971979;28;20752;-85
2022/01/25 11:30:40;;;;;;;102.75;45.83;;;4.80;99.90;;;;;;4972809;28;20046;-84
2022/01/25 11:33:07;;;;;;;97.55;41.17;;;4.50;99.90;;;;;;4956741;28;20457;-85
2022/01/25 11:35:33;;;;;;;103.55;45.60;;;4.50;99.90;;;;;;4990114;28;20053;-85
2022/01/25 11:37:59;;;;;;;98.43;43.92;;;5.20;99.90;;;;;;4956647;28;20064;-84
2022/01/25 11:40:32;;;;;;;102.15;44.92;;;4.50;99.90;;;;;;4973097;28;20446;-85
2022/01/25 11:43:00;;;;;;;99.53;44.40;;;4.50;99.90;;;;;;4955936;28;20109;-84
2022/01/25 11:45:30;;;;;;;99.50;44.20;;;4.60;99.90;;;;;;4972429;28;20054;-84
2022/01/25 11:47:56;;;;;;;101.15;44.83;;;4.50;99.90;;;;;;4956223;28;20419;-88
2022/01/25 11:50:29;;;;;;;97.63;44.38;;;4.50;99.90;;;;;;4972250;28;20038;-84
2022/01/25 11:52:57;;;;;;;94.82;42.85;;;4.50;99.90;;;;;;4940964;28;20187;-89
2022/01/25 11:55:26;;;;;;;100.60;44.13;;;4.50;99.90;;;;;;4956021;28;20133;-85
2022/01/25 11:57:53;;;;;;;102.57;46.03;;;4.50;99.90;;;;;;4972141;28;20108;-86
2022/01/25 12:00:44;;;;;;;97.18;43.70;;;5.00;99.90;;;;;;4972128;28;20073;-84
2022/01/25 12:03:29;;;;;;;94.82;43.47;;;4.60;99.90;;;;;;4958105;28;20557;-83
2022/01/25 12:06:13;;;;;;;104.38;44.90;;;4.60;99.90;;;;;;4989804;28;20526;-81
2022/01/25 12:11:37;;;;;;;97.03;43.70;;;4.50;99.90;;;;;;4989653;28;20180;-83
2022/01/25 12:14:22;;;;;;;102.63;45.85;;;4.60;99.90;;;;;;4990098;28;20288;-83
2022/01/25 12:16:47;;;;;;;96.93;44.40;;;4.70;99.90;;;;;;4990511;28;20050;-82
2022/01/25 12:19:18;;;;;;;105.30;44.70;;;4.60;99.90;;;;;;4973429;28;20058;-82
2022/01/25 12:21:48;;;;;;;101.35;43.50;;;4.60;99.90;;;;;;4973530;28;20439;-82
2022/01/25 12:24:43;;;;;;;97.72;43.92;;;4.60;99.90;;;;;;4990088;28;20059;-83
2022/01/25 12:27:17;;;;;;;107.82;45.65;;;4.70;99.90;;;;;;4956037;28;20153;-82
2022/01/25 12:29:44;;;;;;;102.45;45.72;;;4.60;99.90;;;;;;4990130;28;20057;-83
2022/01/25 12:32:23;;;;;;;100.22;42.65;;;4.70;99.90;;;;;;4972404;28;20046;-82
2022/01/25 12:35:08;;;;;;;93.72;42.90;;;4.70;99.90;;;;;;4989698;28;20058;-82
2022/01/25 12:37:43;;;;;;;104.32;44.08;;;4.70;99.90;;;;;;4990500;28;20087;-82
2022/01/25 12:40:31;;;;;;;100.05;43.38;;;5.20;99.90;;;;;;4973399;28;20511;-81
2022/01/25 12:43:10;;;;;;;93.13;42.78;;;4.70;99.90;;;;;;4990939;28;20130;-81
2022/01/25 12:45:43;;;;;;;96.35;42.95;;;4.70;99.90;;;;;;4977055;28;20054;-81
2022/01/25 12:48:14;;;;;;;103.77;44.50;;;4.60;99.90;;;;;;4977175;28;20057;-81
2022/01/25 12:50:42;;;;;;;96.85;42.67;;;4.60;99.90;;;;;;4993726;28;20081;-81
2022/01/25 12:53:10;;;;;;;83.95;36.40;;;4.60;99.90;;;;;;4976818;28;20080;-81
2022/01/25 12:55:43;;;;;;;99.20;42.70;;;4.70;99.90;;;;;;4976719;28;20448;-82
2022/01/25 12:58:09;;;;;;;99.38;42.88;;;4.70;99.90;;;;;;4960023;28;20115;-82
2022/01/25 13:00:40;;;;;;;97.38;43.50;;;4.70;99.90;;;;;;4993310;28;20066;-82
2022/01/25 13:03:15;;;;;;;99.00;44.28;;;4.70;99.90;;;;;;4959804;28;20179;-86
2022/01/25 13:05:42;;;;;;;104.53;44.53;;;4.70;99.90;;;;;;4993401;28;20046;-81
2022/01/25 13:08:19;;;;;;;94.70;44.10;;;5.00;99.90;;;;;;4975918;28;20476;-82
2022/01/25 13:10:45;;;;;;;101.80;43.67;;;4.60;99.90;;;;;;4993612;28;20053;-81
2022/01/25 13:13:47;;;;;;;100.03;44.80;;;4.60;99.90;;;;;;4992974;28;20395;-81
2022/01/25 13:16:04;;;;;;;96.60;44.05;;;4.60;99.90;;;;;;4965447;28;20062;-81
2022/01/25 13:18:31;;;;;;;105.18;46.65;;;4.70;99.90;;;;;;4959437;28;20050;-81
2022/01/25 13:21:06;;;;;;;105.72;45.88;;;4.50;99.90;;;;;;4975749;28;20046;-81
2022/01/25 13:23:32;;;;;;;107.03;46.90;;;4.60;99.90;;;;;;4959860;28;20094;-81
2022/01/25 13:26:09;;;;;;;104.38;44.40;;;4.50;99.90;;;;;;4993346;28;20441;-82
2022/01/25 13:31:13;;;;;;;98.38;45.17;;;4.50;99.90;;;;;;4992840;28;20053;-83
2022/01/25 13:33:39;;;;;;;101.65;44.50;;;4.60;99.90;;;;;;4993260;28;20050;-82
2022/01/25 13:36:07;;;;;;;106.60;46.33;;;4.50;99.90;;;;;;4993042;28;20111;-81
2022/01/25 13:38:39;;;;;;;99.25;43.97;;;4.60;99.90;;;;;;4993034;28;20046;-81
2022/01/25 13:46:29;;;;;;;101.30;44.75;;;4.60;99.90;;;;;;4992414;28;20484;-80
2022/01/25 13:49:03;;;;;;;102.75;43.95;;;4.60;99.90;;;;;;4977024;28;20057;-80
2022/01/25 13:51:30;;;;;;;102.47;45.13;;;4.50;99.90;;;;;;4975282;28;20046;-81
2022/01/25 13:54:00;;;;;;;104.05;44.95;;;4.70;99.90;;;;;;4958448;28;20504;-85
2022/01/25 13:56:28;;;;;;;102.30;45.20;;;4.60;99.90;;;;;;4975330;28;20148;-81
2022/01/25 13:58:54;;;;;;;106.45;45.53;;;5.40;99.90;;;;;;4974873;28;20131;-81
2022/01/25 14:01:21;;;;;;;104.57;45.97;;;4.60;99.90;;;;;;4974091;28;20121;-82
2022/01/25 14:04:18;;;;;;;103.63;44.35;;;4.80;99.90;;;;;;4974796;28;20062;-83
2022/01/25 14:06:49;;;;;;;102.18;45.03;;;4.70;99.90;;;;;;4974571;28;20129;-82
2022/01/25 14:09:22;;;;;;;106.45;45.83;;;4.50;99.90;;;;;;4975872;28;20054;-85
2022/01/25 14:22:49;;;;;;;101.20;42.67;;;4.90;99.90;;;;;;4992253;28;20476;-83
2022/01/25 14:25:25;;;;;;;113.82;44.10;;;4.40;99.90;;;;;;4976769;28;20107;-85
2022/01/25 14:27:53;;;;;;;105.28;43.60;;;4.40;99.90;;;;;;4992676;28;20047;-82
2022/01/25 14:30:19;;;;;;;96.65;43.40;;;4.50;99.90;;;;;;4975229;28;20557;-82
2022/01/25 14:33:16;;;;;;;106.45;44.97;;;4.40;99.90;;;;;;4992547;28;20043;-82
2022/01/25 14:35:46;;;;;;;103.70;44.42;;;4.40;99.90;;;;;;4966406;28;20108;-82
2022/01/25 14:38:28;;;;;;;104.53;44.20;;;4.50;99.90;;;;;;4992431;28;20043;-82
2022/01/25 14:40:55;;;;;;;111.28;45.95;;;4.40;99.90;;;;;;4974994;28;20047;-82
2022/01/25 14:43:26;;;;;;;104.95;44.03;;;4.50;99.90;;;;;;4977346;28;20100;-82
2022/01/25 14:46:05;;;;;;;113.07;47.15;;;4.50;99.90;;;;;;4984201;28;20050;-81
2022/01/25 14:48:35;;;;;;;114.82;45.33;;;4.40;99.90;;;;;;4991878;28;20076;-82
2022/01/25 14:51:01;;;;;;;110.15;45.42;;;4.40;99.90;;;;;;4992401;28;20047;-82
2022/01/25 14:53:27;;;;;;;104.97;44.25;;;4.40;99.90;;;;;;5041898;28;20051;-82